Time;durP1;ratioP1;P1;durP2;ratioP2;P2;SDS_P1;SDS_P2;PMS_P1;PMS_P2;Temp;Humidity;BMP_temperature;BMP_pressure;BME280_temperature;BME280_humidity;BME280_pressure;Samples;Min_cycle;Max_cycle;Signal;HPM_P1;HPM_P2
2023/08/12 00:01:40;;;;;;;4.47;3.13;;;20.50;99.90;;;;;;5000493;28;20293;-73
2023/08/12 00:04:06;;;;;;;4.32;3.10;;;20.50;99.90;;;;;;5006978;28;20177;-74
2023/08/12 00:06:32;;;;;;;5.28;3.80;;;20.50;99.90;;;;;;5017449;28;20220;-73
2023/08/12 00:08:57;;;;;;;5.55;3.30;;;20.50;99.90;;;;;;5010600;28;20197;-74
2023/08/12 00:11:23;;;;;;;5.00;3.63;;;20.50;99.90;;;;;;5006093;28;20208;-73
2023/08/12 00:13:48;;;;;;;5.03;3.63;;;20.50;99.90;;;;;;5007519;28;20232;-74
2023/08/12 00:16:14;;;;;;;7.05;3.47;;;20.50;99.90;;;;;;5008385;28;20180;-74
2023/08/12 00:18:40;;;;;;;3.88;3.28;;;20.50;99.90;;;;;;5005094;28;20217;-74
2023/08/12 00:21:09;;;;;;;5.30;3.67;;;20.40;99.90;;;;;;5005940;28;20619;-74
2023/08/12 00:23:38;;;;;;;6.32;3.92;;;20.40;99.90;;;;;;5003932;28;20209;-73
2023/08/12 00:26:04;;;;;;;4.93;3.63;;;20.40;99.90;;;;;;5002868;28;20714;-74
2023/08/12 00:28:29;;;;;;;4.05;3.45;;;20.40;99.90;;;;;;5003384;28;20189;-73
2023/08/12 00:30:55;;;;;;;4.43;3.30;;;20.40;99.90;;;;;;5003771;28;20201;-74
2023/08/12 00:33:21;;;;;;;5.13;3.40;;;20.40;99.90;;;;;;5002672;28;20216;-74
2023/08/12 00:35:46;;;;;;;7.60;3.78;;;20.30;99.90;;;;;;5001248;28;20304;-74
2023/08/12 00:38:12;;;;;;;6.95;3.40;;;20.30;99.90;;;;;;5002226;28;20205;-74
2023/08/12 00:40:38;;;;;;;5.78;3.40;;;20.40;99.90;;;;;;5001710;28;20837;-73
2023/08/12 00:43:03;;;;;;;5.55;3.38;;;20.40;99.90;;;;;;5002488;28;20205;-73
2023/08/12 00:45:29;;;;;;;5.65;3.20;;;20.40;99.90;;;;;;5009327;28;20288;-74
2023/08/12 00:47:55;;;;;;;5.82;3.47;;;20.40;99.90;;;;;;5007653;28;20205;-73
2023/08/12 00:50:21;;;;;;;6.32;4.20;;;20.30;99.90;;;;;;5010647;28;20209;-73
2023/08/12 00:52:48;;;;;;;5.18;3.22;;;20.40;99.90;;;;;;5005665;28;20213;-75
2023/08/12 00:55:14;;;;;;;4.40;3.15;;;20.40;99.90;;;;;;5007832;28;20177;-74
2023/08/12 00:57:40;;;;;;;4.72;3.03;;;20.30;99.90;;;;;;5004394;28;20594;-72
2023/08/12 01:00:06;;;;;;;5.47;2.92;;;20.40;99.90;;;;;;5005763;28;20840;-74
2023/08/12 01:02:32;;;;;;;3.75;3.25;;;20.30;99.90;;;;;;5003376;28;20737;-74
2023/08/12 01:04:58;;;;;;;4.03;3.30;;;20.30;99.90;;;;;;5004011;28;20210;-74
2023/08/12 01:07:24;;;;;;;3.85;3.05;;;20.30;99.90;;;;;;5003834;28;20188;-73
2023/08/12 01:09:50;;;;;;;7.20;4.00;;;20.30;99.90;;;;;;5000493;28;20205;-74
2023/08/12 01:12:28;;;;;;;3.92;3.00;;;20.30;99.90;;;;;;5002458;28;20896;-72
2023/08/12 01:15:15;;;;;;;5.13;3.13;;;20.20;99.90;;;;;;4999783;28;20364;-73
2023/08/12 01:17:42;;;;;;;5.68;3.08;;;20.20;99.90;;;;;;5002235;28;20289;-73
2023/08/12 01:20:08;;;;;;;5.95;2.97;;;20.20;99.90;;;;;;5006715;28;20217;-73
2023/08/12 01:22:39;;;;;;;3.75;3.25;;;20.10;99.90;;;;;;5013570;28;20706;-74
2023/08/12 01:25:05;;;;;;;5.15;3.58;;;20.10;99.90;;;;;;5013278;28;20177;-74
2023/08/12 01:27:31;;;;;;;3.28;2.65;;;20.10;99.90;;;;;;5019864;28;20216;-75
2023/08/12 01:29:57;;;;;;;4.95;3.15;;;20.10;99.90;;;;;;5011526;28;20211;-73
2023/08/12 01:32:31;;;;;;;6.18;3.25;;;20.00;99.90;;;;;;5010437;28;20236;-71
2023/08/12 01:35:06;;;;;;;6.32;3.28;;;20.00;99.90;;;;;;5011238;28;20359;-74
2023/08/12 01:37:33;;;;;;;8.32;3.20;;;20.00;99.90;;;;;;5007907;28;20176;-73
2023/08/12 01:40:04;;;;;;;6.57;3.30;;;20.00;99.90;;;;;;5005458;28;20209;-72
2023/08/12 01:42:31;;;;;;;3.53;3.00;;;20.00;99.90;;;;;;5006657;28;20216;-73
2023/08/12 01:44:56;;;;;;;4.53;2.70;;;19.90;99.90;;;;;;5004359;28;20206;-73
2023/08/12 01:47:22;;;;;;;5.18;2.97;;;20.00;99.90;;;;;;5006591;28;20212;-74
2023/08/12 01:49:48;;;;;;;5.75;3.17;;;20.00;99.90;;;;;;5009917;28;20739;-74
2023/08/12 01:52:13;;;;;;;4.22;3.40;;;20.00;99.90;;;;;;5008729;28;20255;-73
2023/08/12 01:54:39;;;;;;;5.75;3.55;;;20.00;99.90;;;;;;5009315;28;20209;-73
2023/08/12 01:57:05;;;;;;;3.63;3.33;;;19.90;99.90;;;;;;5011962;28;20209;-74
2023/08/12 01:59:32;;;;;;;4.90;3.20;;;19.90;99.90;;;;;;5011945;28;20305;-74
2023/08/12 02:01:58;;;;;;;4.57;3.25;;;19.90;99.90;;;;;;5010069;28;20205;-74
2023/08/12 02:04:23;;;;;;;6.25;3.35;;;19.90;99.90;;;;;;5011089;28;20511;-73
2023/08/12 02:06:49;;;;;;;3.80;3.40;;;19.90;99.90;;;;;;5011273;28;20297;-75
2023/08/12 02:09:15;;;;;;;3.80;3.10;;;19.90;99.90;;;;;;5009580;28;20220;-73
2023/08/12 02:11:41;;;;;;;4.22;3.00;;;19.90;99.90;;;;;;5008263;28;20209;-74
2023/08/12 02:14:06;;;;;;;4.93;3.45;;;20.00;99.90;;;;;;5007389;28;20310;-74
2023/08/12 02:16:32;;;;;;;6.70;3.55;;;19.90;99.90;;;;;;5007359;28;20204;-73
2023/08/12 02:18:57;;;;;;;4.70;3.40;;;19.90;99.90;;;;;;5005605;28;20201;-74
2023/08/12 02:21:23;;;;;;;4.57;3.72;;;19.90;99.90;;;;;;5006686;28;20303;-72
2023/08/12 02:23:49;;;;;;;5.57;3.55;;;19.90;99.90;;;;;;5001217;28;20638;-71
2023/08/12 02:26:15;;;;;;;4.00;3.03;;;19.90;99.90;;;;;;5011475;28;20284;-73
2023/08/12 02:28:41;;;;;;;4.57;3.08;;;19.80;99.90;;;;;;4999972;28;20188;-74
2023/08/12 02:31:06;;;;;;;5.32;3.53;;;19.80;99.90;;;;;;5019982;28;20202;-74
2023/08/12 02:33:32;;;;;;;4.65;3.70;;;19.80;99.90;;;;;;5020113;28;20200;-74
2023/08/12 02:35:57;;;;;;;4.72;3.85;;;19.80;99.90;;;;;;5017205;28;20205;-74
2023/08/12 02:38:23;;;;;;;4.18;3.45;;;19.90;99.90;;;;;;5018453;28;20323;-73
2023/08/12 02:40:49;;;;;;;4.82;3.33;;;19.90;99.90;;;;;;5014743;28;20308;-74
2023/08/12 02:43:16;;;;;;;3.70;3.40;;;19.80;99.90;;;;;;5012103;28;20177;-74
2023/08/12 02:45:41;;;;;;;5.13;3.63;;;19.80;99.90;;;;;;5012733;28;20219;-73
2023/08/12 02:48:11;;;;;;;6.97;3.50;;;19.90;99.90;;;;;;5013032;28;20630;-73
2023/08/12 02:50:37;;;;;;;5.50;3.30;;;19.80;99.90;;;;;;5017115;28;20205;-74
2023/08/12 02:53:03;;;;;;;6.07;3.50;;;19.80;99.90;;;;;;5009201;28;20643;-74
2023/08/12 02:55:29;;;;;;;5.82;3.60;;;19.90;99.90;;;;;;5009360;28;20252;-74
2023/08/12 02:57:55;;;;;;;4.28;3.30;;;19.80;99.90;;;;;;5039216;28;20260;-74
2023/08/12 03:00:21;;;;;;;4.88;3.47;;;19.70;99.90;;;;;;5010189;28;20244;-74
2023/08/12 03:02:47;;;;;;;5.30;3.25;;;19.80;99.90;;;;;;5006378;28;20656;-72
2023/08/12 03:05:13;;;;;;;4.78;3.35;;;19.80;99.90;;;;;;5004185;28;20232;-74
2023/08/12 03:07:38;;;;;;;4.53;3.67;;;19.80;99.90;;;;;;5015534;28;20188;-74
2023/08/12 03:10:05;;;;;;;5.18;3.30;;;19.80;99.90;;;;;;5020086;28;20245;-75
2023/08/12 03:12:30;;;;;;;4.28;3.47;;;19.80;99.90;;;;;;5018770;28;20334;-73
2023/08/12 03:14:56;;;;;;;7.22;3.80;;;19.70;99.90;;;;;;5015613;28;20227;-73
2023/08/12 03:17:22;;;;;;;4.10;3.70;;;19.70;99.90;;;;;;5017152;28;20784;-72
2023/08/12 03:19:48;;;;;;;5.03;3.50;;;19.70;99.90;;;;;;5013478;28;20592;-74
2023/08/12 03:22:13;;;;;;;5.30;3.65;;;19.70;99.90;;;;;;5014643;28;20734;-73
2023/08/12 03:24:39;;;;;;;5.20;3.45;;;19.70;99.90;;;;;;5006760;28;20300;-74
2023/08/12 03:27:05;;;;;;;5.30;3.47;;;19.70;99.90;;;;;;5009145;28;20227;-74
2023/08/12 03:29:30;;;;;;;5.47;3.30;;;19.70;99.90;;;;;;5009113;28;20684;-74
2023/08/12 03:31:56;;;;;;;5.97;3.70;;;19.70;99.90;;;;;;5005234;28;20236;-74
2023/08/12 03:34:21;;;;;;;4.88;3.58;;;19.70;99.90;;;;;;5007840;28;20189;-72
2023/08/12 03:36:48;;;;;;;5.30;3.72;;;19.60;99.90;;;;;;5002709;28;20219;-73
2023/08/12 03:39:14;;;;;;;5.82;3.90;;;19.70;99.90;;;;;;5004612;28;20213;-74
2023/08/12 03:41:40;;;;;;;4.25;3.40;;;19.60;99.90;;;;;;5002227;28;20721;-74
2023/08/12 03:44:05;;;;;;;4.90;3.92;;;19.60;99.90;;;;;;5007615;28;20892;-74
2023/08/12 03:46:31;;;;;;;4.85;3.83;;;19.60;99.90;;;;;;5018106;28;20183;-74
2023/08/12 03:48:57;;;;;;;4.75;3.75;;;19.60;99.90;;;;;;5020526;28;20176;-71
2023/08/12 03:51:22;;;;;;;7.05;4.30;;;19.60;99.90;;;;;;5009248;28;20690;-73
2023/08/12 03:53:48;;;;;;;7.10;4.50;;;19.60;99.90;;;;;;5014687;28;20632;-74
2023/08/12 03:56:16;;;;;;;5.28;3.80;;;19.50;99.90;;;;;;5009260;28;20210;-74
2023/08/12 03:58:42;;;;;;;5.00;3.85;;;19.60;99.90;;;;;;5007815;28;20757;-73
2023/08/12 04:01:08;;;;;;;6.68;3.90;;;19.60;99.90;;;;;;5010376;28;20743;-74
2023/08/12 04:03:33;;;;;;;3.85;3.42;;;19.60;99.90;;;;;;5013093;28;20292;-74
2023/08/12 04:05:59;;;;;;;7.05;4.20;;;19.60;99.90;;;;;;5006994;28;20255;-71
2023/08/12 04:08:25;;;;;;;6.65;3.88;;;19.70;99.90;;;;;;5008918;28;20204;-73
2023/08/12 04:10:54;;;;;;;5.93;3.90;;;19.70;99.90;;;;;;5004914;28;20888;-73
2023/08/12 04:13:20;;;;;;;7.10;3.50;;;19.80;99.90;;;;;;5004730;28;20693;-73
2023/08/12 04:15:50;;;;;;;4.30;3.40;;;19.90;99.90;;;;;;5003030;28;20205;-74
2023/08/12 04:18:16;;;;;;;4.75;3.42;;;19.80;99.90;;;;;;5002427;28;20216;-74
2023/08/12 04:20:42;;;;;;;3.92;3.63;;;19.90;99.90;;;;;;5006809;28;20582;-74
2023/08/12 04:23:08;;;;;;;6.15;4.32;;;19.90;99.90;;;;;;5017876;28;20219;-73
2023/08/12 04:25:33;;;;;;;5.53;4.28;;;19.90;99.90;;;;;;5018656;28;20647;-74
2023/08/12 04:27:59;;;;;;;6.10;4.03;;;20.10;99.90;;;;;;5009302;28;20204;-74
2023/08/12 04:30:25;;;;;;;6.30;3.65;;;20.10;99.90;;;;;;5010856;28;20686;-74
2023/08/12 04:32:50;;;;;;;6.07;4.15;;;20.10;99.90;;;;;;5011793;28;20304;-73
2023/08/12 04:35:16;;;;;;;4.57;3.30;;;20.30;99.90;;;;;;5012890;28;20301;-73
2023/08/12 04:37:42;;;;;;;4.45;3.53;;;20.40;99.90;;;;;;5010929;28;20179;-73
2023/08/12 04:40:08;;;;;;;4.80;3.30;;;20.40;99.90;;;;;;5008760;28;20233;-74
2023/08/12 04:42:34;;;;;;;4.68;3.40;;;21.00;99.90;;;;;;5008697;28;20263;-74
2023/08/12 04:44:59;;;;;;;5.60;3.50;;;22.40;99.90;;;;;;5007567;28;20200;-74
2023/08/12 04:47:25;;;;;;;5.03;3.58;;;23.60;99.90;;;;;;5003761;28;20229;-75
2023/08/12 04:49:51;;;;;;;3.78;3.22;;;23.80;99.90;;;;;;5009741;28;20398;-74
2023/08/12 04:52:18;;;;;;;5.60;4.00;;;24.40;99.90;;;;;;5004086;28;20206;-71
2023/08/12 04:54:43;;;;;;;4.38;2.88;;;25.90;99.90;;;;;;5001379;28;20258;-74
2023/08/12 04:57:09;;;;;;;4.55;3.08;;;25.90;99.90;;;;;;4999583;28;20213;-75
2023/08/12 04:59:35;;;;;;;3.42;3.05;;;26.80;99.90;;;;;;5013257;28;20224;-74
2023/08/12 05:02:01;;;;;;;4.78;3.10;;;27.10;99.90;;;;;;5012197;28;20212;-73
2023/08/12 05:04:26;;;;;;;3.47;3.17;;;27.80;99.90;;;;;;5011950;28;20195;-74
2023/08/12 05:06:52;;;;;;;5.38;2.97;;;27.80;99.90;;;;;;5011345;28;20692;-74
2023/08/12 05:09:18;;;;;;;5.05;3.08;;;27.30;99.90;;;;;;5013981;28;20263;-74
2023/08/12 05:11:43;;;;;;;4.47;2.78;;;27.20;99.90;;;;;;5006870;28;20215;-74
2023/08/12 05:14:09;;;;;;;5.85;3.28;;;27.60;99.90;;;;;;5005898;28;20214;-74
2023/08/12 05:16:34;;;;;;;7.05;2.75;;;28.00;99.90;;;;;;5007350;28;20188;-75
2023/08/12 05:19:00;;;;;;;6.47;2.90;;;27.70;99.90;;;;;;5003888;28;20222;-74
2023/08/12 05:21:26;;;;;;;8.70;2.78;;;27.70;99.90;;;;;;5005519;28;20204;-74
2023/08/12 05:23:52;;;;;;;4.82;2.90;;;28.20;99.90;;;;;;5002223;28;20570;-73
2023/08/12 05:26:18;;;;;;;3.95;3.10;;;28.50;99.90;;;;;;5000541;28;20314;-75
2023/08/12 05:28:43;;;;;;;4.18;2.88;;;28.80;99.90;;;;;;5002481;28;20180;-75
2023/08/12 05:31:09;;;;;;;10.27;6.55;;;29.60;99.90;;;;;;4998577;28;20762;-74
2023/08/12 05:33:35;;;;;;;5.30;3.08;;;29.60;99.90;;;;;;5001653;28;20284;-74
2023/08/12 05:36:00;;;;;;;6.20;4.00;;;29.20;99.90;;;;;;5008507;28;20208;-74
2023/08/12 05:38:26;;;;;;;4.88;2.90;;;30.00;99.90;;;;;;5008170;28;20793;-74
2023/08/12 05:40:51;;;;;;;4.05;2.67;;;29.10;99.90;;;;;;5008301;28;20240;-75
2023/08/12 05:43:17;;;;;;;8.48;5.20;;;28.00;99.90;;;;;;5006665;28;20181;-74
2023/08/12 05:45:43;;;;;;;4.68;2.70;;;27.70;99.90;;;;;;5005521;28;20252;-74
2023/08/12 05:48:08;;;;;;;6.72;4.32;;;26.70;99.90;;;;;;5003300;28;20628;-74
2023/08/12 05:50:34;;;;;;;5.05;2.95;;;26.10;99.90;;;;;;5004888;28;20212;-74
2023/08/12 05:53:00;;;;;;;8.15;3.35;;;24.90;99.90;;;;;;5003447;28;20213;-73
2023/08/12 05:55:25;;;;;;;6.00;3.00;;;24.50;99.90;;;;;;5005853;28;20213;-74
2023/08/12 05:57:51;;;;;;;5.15;2.88;;;24.10;99.90;;;;;;5003897;28;20387;-74
2023/08/12 06:00:16;;;;;;;7.40;4.60;;;24.20;99.90;;;;;;5002820;28;20226;-73
2023/08/12 06:02:42;;;;;;;5.63;4.50;;;23.90;99.90;;;;;;5001753;28;20217;-74
2023/08/12 06:05:08;;;;;;;4.38;2.95;;;23.70;99.90;;;;;;4999618;28;20639;-74
2023/08/12 06:07:34;;;;;;;4.38;3.00;;;23.50;99.90;;;;;;5003626;28;20215;-74
2023/08/12 06:10:00;;;;;;;5.57;3.13;;;24.00;99.90;;;;;;5001301;28;20548;-75
2023/08/12 06:12:26;;;;;;;5.80;2.92;;;24.30;99.90;;;;;;5011207;28;20723;-74
2023/08/12 06:14:52;;;;;;;5.60;3.70;;;24.40;99.90;;;;;;5012338;28;20212;-74
2023/08/12 06:17:17;;;;;;;7.72;4.20;;;24.60;99.90;;;;;;5005674;28;20209;-76
2023/08/12 06:19:43;;;;;;;5.05;4.43;;;24.90;99.90;;;;;;5011147;28;20193;-74
2023/08/12 06:22:09;;;;;;;3.53;3.20;;;25.00;99.90;;;;;;5010146;28;20193;-74
2023/08/12 06:24:34;;;;;;;6.07;3.58;;;25.10;99.90;;;;;;5009145;28;20207;-74
2023/08/12 06:27:00;;;;;;;4.20;3.10;;;24.60;99.90;;;;;;5008920;28;20329;-74
2023/08/12 06:29:25;;;;;;;5.63;3.42;;;24.80;99.90;;;;;;5009313;28;20634;-74
2023/08/12 06:31:52;;;;;;;6.13;3.05;;;25.40;99.90;;;;;;5006807;28;20220;-74
2023/08/12 06:34:18;;;;;;;3.95;3.13;;;25.50;99.90;;;;;;5008208;28;20264;-74
2023/08/12 06:36:44;;;;;;;6.10;3.25;;;26.20;99.90;;;;;;5009417;28;20351;-74
2023/08/12 06:39:09;;;;;;;4.97;3.25;;;26.10;99.90;;;;;;5004128;28;20715;-74
2023/08/12 06:41:35;;;;;;;4.18;2.90;;;26.30;99.90;;;;;;5005220;28;20204;-75
2023/08/12 06:44:01;;;;;;;3.63;3.13;;;26.20;99.90;;;;;;5001838;28;20201;-74
2023/08/12 06:46:26;;;;;;;4.53;3.50;;;26.70;99.90;;;;;;5002226;28;20209;-74
2023/08/12 06:48:52;;;;;;;4.72;3.10;;;28.30;99.90;;;;;;5011420;28;20172;-74
2023/08/12 06:51:18;;;;;;;5.60;2.97;;;27.90;99.90;;;;;;5011149;28;20213;-74
2023/08/12 06:53:43;;;;;;;4.20;3.00;;;27.10;99.90;;;;;;5010683;28;20228;-74
2023/08/12 06:56:09;;;;;;;6.75;3.60;;;25.70;99.90;;;;;;5010422;28;20221;-74
2023/08/12 06:58:34;;;;;;;5.03;3.05;;;25.90;99.90;;;;;;5008776;28;20232;-73
2023/08/12 07:01:00;;;;;;;4.93;3.35;;;26.30;99.90;;;;;;5008764;28;20200;-74
2023/08/12 07:03:26;;;;;;;7.00;3.47;;;25.70;99.90;;;;;;5008292;28;20208;-73
2023/08/12 07:05:53;;;;;;;3.38;3.00;;;26.30;99.90;;;;;;5009026;28;20296;-74
2023/08/12 07:08:19;;;;;;;3.97;3.35;;;28.20;99.90;;;;;;5003369;28;20206;-74
2023/08/12 07:10:45;;;;;;;6.88;3.65;;;29.30;99.90;;;;;;5009613;28;20272;-74
2023/08/12 07:13:10;;;;;;;4.93;2.83;;;28.70;99.90;;;;;;5005762;28;20195;-76
2023/08/12 07:15:36;;;;;;;4.47;3.42;;;29.50;99.90;;;;;;5006697;28;20215;-74
2023/08/12 07:18:02;;;;;;;3.55;3.25;;;29.50;99.90;;;;;;5005681;28;20255;-74
2023/08/12 07:20:27;;;;;;;6.20;3.28;;;29.30;99.90;;;;;;5002021;28;20304;-75
2023/08/12 07:22:53;;;;;;;4.25;2.90;;;30.70;99.90;;;;;;5002707;28;20715;-75
2023/08/12 07:25:18;;;;;;;5.20;3.42;;;31.70;99.90;;;;;;5005023;28;20684;-74
2023/08/12 07:27:44;;;;;;;6.18;3.00;;;31.80;99.90;;;;;;5010922;28;20208;-73
2023/08/12 07:30:10;;;;;;;5.95;3.05;;;32.30;99.90;;;;;;5010822;28;20274;-73
2023/08/12 07:32:37;;;;;;;3.45;3.00;;;30.70;99.90;;;;;;5011894;28;20225;-73
2023/08/12 07:35:05;;;;;;;5.63;3.55;;;30.10;99.90;;;;;;5013202;28;20695;-73
2023/08/12 07:37:31;;;;;;;4.10;2.85;;;29.10;99.90;;;;;;5009290;28;20507;-73
2023/08/12 07:39:57;;;;;;;3.65;3.20;;;27.50;99.90;;;;;;5010996;28;20200;-73
2023/08/12 07:42:23;;;;;;;5.18;3.72;;;26.60;99.90;;;;;;5007302;28;20230;-72
2023/08/12 07:44:48;;;;;;;5.72;3.33;;;26.40;99.90;;;;;;5007138;28;20203;-75
2023/08/12 07:47:15;;;;;;;5.30;3.30;;;26.30;99.90;;;;;;5002653;28;20224;-72
2023/08/12 07:49:41;;;;;;;3.50;3.20;;;26.60;99.90;;;;;;5006313;28;20727;-73
2023/08/12 07:52:06;;;;;;;9.57;4.38;;;26.70;99.90;;;;;;5001194;28;20275;-74
2023/08/12 07:54:32;;;;;;;8.60;5.00;;;26.20;99.90;;;;;;5004306;28;20563;-73
2023/08/12 07:56:57;;;;;;;6.97;3.25;;;26.40;99.90;;;;;;5003628;28;20204;-74
2023/08/12 07:59:23;;;;;;;9.85;3.88;;;26.20;99.90;;;;;;5000648;28;20225;-74
2023/08/12 08:01:49;;;;;;;5.32;3.53;;;26.30;99.90;;;;;;5009711;28;20212;-75
2023/08/12 08:04:14;;;;;;;5.97;3.90;;;26.40;99.90;;;;;;5014809;28;20687;-75
2023/08/12 08:06:40;;;;;;;5.25;3.80;;;26.00;99.90;;;;;;5008993;28;20213;-73
2023/08/12 08:09:06;;;;;;;4.78;3.80;;;25.60;99.90;;;;;;5009422;28;20270;-75
2023/08/12 08:11:32;;;;;;;6.95;3.85;;;25.80;99.90;;;;;;5010415;28;20739;-75
2023/08/12 08:13:58;;;;;;;5.00;3.67;;;25.90;99.90;;;;;;5011002;28;20589;-75
2023/08/12 08:16:24;;;;;;;6.13;3.45;;;25.80;99.90;;;;;;5005298;28;20189;-74
2023/08/12 08:18:50;;;;;;;7.72;3.80;;;25.60;99.90;;;;;;5010123;28;20208;-75
2023/08/12 08:21:16;;;;;;;5.90;3.53;;;25.30;99.90;;;;;;5007010;28;20205;-73
2023/08/12 08:23:42;;;;;;;7.22;3.95;;;25.70;99.90;;;;;;5009132;28;20216;-75
2023/08/12 08:26:09;;;;;;;6.30;3.78;;;25.30;99.90;;;;;;5004725;28;20588;-75
2023/08/12 08:28:35;;;;;;;4.70;4.00;;;25.30;99.90;;;;;;5003686;28;20188;-75
2023/08/12 08:31:01;;;;;;;5.97;3.90;;;25.10;99.90;;;;;;5004142;28;20189;-76
2023/08/12 08:33:26;;;;;;;5.65;3.50;;;25.10;99.90;;;;;;5001571;28;20209;-74
2023/08/12 08:35:53;;;;;;;7.00;3.88;;;25.00;99.90;;;;;;5003033;28;20209;-74
2023/08/12 08:38:19;;;;;;;4.78;3.28;;;24.70;99.90;;;;;;5006652;28;20572;-74
2023/08/12 08:40:45;;;;;;;5.93;3.90;;;24.70;99.90;;;;;;5010053;28;20204;-75
2023/08/12 08:43:15;;;;;;;6.65;4.10;;;24.50;99.90;;;;;;5012985;28;20185;-75
2023/08/12 08:45:43;;;;;;;5.05;4.10;;;24.50;99.90;;;;;;5011578;28;20210;-75
2023/08/12 08:48:09;;;;;;;8.15;3.80;;;24.40;99.90;;;;;;5007629;28;20216;-75
2023/08/12 08:50:36;;;;;;;6.68;4.03;;;24.10;99.90;;;;;;5009735;28;20218;-74
2023/08/12 08:53:06;;;;;;;10.35;4.55;;;24.20;99.90;;;;;;5008434;28;20578;-74
2023/08/12 08:55:32;;;;;;;6.40;3.90;;;24.20;99.90;;;;;;5003410;28;20182;-75
2023/08/12 08:57:57;;;;;;;7.18;4.38;;;24.30;99.90;;;;;;5006163;28;20185;-74
2023/08/12 09:00:25;;;;;;;7.50;4.38;;;24.30;99.90;;;;;;5003380;28;20217;-73
2023/08/12 09:02:51;;;;;;;5.75;4.32;;;24.30;99.90;;;;;;5003032;28;20213;-75
2023/08/12 09:05:18;;;;;;;6.28;4.18;;;24.30;99.90;;;;;;5005926;28;20596;-75
2023/08/12 09:07:45;;;;;;;6.47;4.40;;;24.20;99.90;;;;;;5004367;28;20588;-74
2023/08/12 09:10:11;;;;;;;8.32;5.20;;;24.60;99.90;;;;;;5002455;28;20275;-76
2023/08/12 09:12:37;;;;;;;7.07;5.45;;;24.70;99.90;;;;;;4996157;28;20209;-75
2023/08/12 09:15:04;;;;;;;5.80;3.90;;;24.80;99.90;;;;;;5006363;28;20759;-75
2023/08/12 09:17:32;;;;;;;6.13;4.30;;;24.80;99.90;;;;;;5009597;28;20239;-75
2023/08/12 09:19:58;;;;;;;8.88;4.20;;;24.50;99.90;;;;;;5012713;28;20220;-74
2023/08/12 09:22:25;;;;;;;7.15;4.57;;;24.60;99.90;;;;;;5008571;28;20201;-73
2023/08/12 09:24:56;;;;;;;8.20;4.60;;;25.10;99.90;;;;;;5008047;28;20205;-74
2023/08/12 09:27:22;;;;;;;8.43;4.20;;;25.10;99.90;;;;;;5009814;28;20220;-72
2023/08/12 09:29:47;;;;;;;6.03;4.43;;;25.10;99.90;;;;;;5006373;28;20216;-75
2023/08/12 09:32:18;;;;;;;7.00;4.13;;;25.40;99.90;;;;;;5006688;28;20263;-75
2023/08/12 09:34:47;;;;;;;8.80;4.20;;;25.70;99.90;;;;;;5005479;28;20174;-74
2023/08/12 09:37:14;;;;;;;6.70;5.18;;;26.00;99.90;;;;;;5005620;28;20255;-75
2023/08/12 09:39:40;;;;;;;6.57;5.07;;;26.10;99.90;;;;;;5004781;28;20594;-75
2023/08/12 09:42:06;;;;;;;5.88;4.30;;;26.40;99.90;;;;;;5006351;28;20211;-74
2023/08/12 09:44:38;;;;;;;5.57;3.90;;;26.10;99.90;;;;;;5006667;28;20210;-75
2023/08/12 09:47:05;;;;;;;6.57;4.53;;;25.90;99.90;;;;;;5008904;28;20243;-74
2023/08/12 09:49:30;;;;;;;5.03;4.55;;;25.70;99.90;;;;;;5005892;28;20193;-76
2023/08/12 09:51:56;;;;;;;6.22;4.80;;;25.70;99.90;;;;;;5006938;28;20209;-74
2023/08/12 09:54:25;;;;;;;5.00;4.50;;;25.90;99.90;;;;;;5002170;28;20301;-73
2023/08/12 09:57:01;;;;;;;5.45;4.25;;;25.80;99.90;;;;;;5012918;28;20699;-76
2023/08/12 09:59:32;;;;;;;8.75;4.63;;;26.10;99.90;;;;;;5009385;28;20681;-73
2023/08/12 10:01:58;;;;;;;6.43;4.75;;;26.10;99.90;;;;;;5009205;28;20232;-75
2023/08/12 10:04:29;;;;;;;8.52;4.55;;;25.80;99.90;;;;;;5014563;28;20208;-74
2023/08/12 10:06:55;;;;;;;9.95;5.05;;;25.90;99.90;;;;;;5007184;28;20635;-74
2023/08/12 10:09:21;;;;;;;7.22;4.38;;;26.00;99.90;;;;;;5009815;28;20292;-74
2023/08/12 10:11:47;;;;;;;5.95;4.10;;;25.70;99.90;;;;;;5011154;28;20213;-74
2023/08/12 10:14:14;;;;;;;4.63;4.22;;;25.60;99.90;;;;;;5011290;28;20217;-74
2023/08/12 10:16:45;;;;;;;7.35;4.50;;;25.60;99.90;;;;;;5009723;28;20245;-74
2023/08/12 10:19:12;;;;;;;4.75;4.25;;;25.60;99.90;;;;;;5007554;28;20197;-72
2023/08/12 10:21:38;;;;;;;5.57;4.40;;;25.50;99.90;;;;;;5005788;28;20209;-74
2023/08/12 10:24:06;;;;;;;5.80;4.20;;;25.60;99.90;;;;;;5008383;28;20683;-74
2023/08/12 10:26:32;;;;;;;6.28;4.75;;;25.80;99.90;;;;;;5004657;28;20759;-74
2023/08/12 10:28:59;;;;;;;4.63;4.22;;;26.00;99.90;;;;;;5010966;28;20232;-74
2023/08/12 10:31:28;;;;;;;6.50;3.75;;;26.20;99.90;;;;;;5000671;28;20216;-74
2023/08/12 10:33:54;;;;;;;5.10;4.60;;;26.20;99.90;;;;;;5004613;28;20328;-75
2023/08/12 10:36:22;;;;;;;5.50;4.35;;;26.20;99.90;;;;;;5008875;28;20275;-73
2023/08/12 10:38:48;;;;;;;5.65;4.40;;;26.40;99.90;;;;;;5011227;28;20234;-73
2023/08/12 10:41:21;;;;;;;5.78;4.65;;;26.60;99.90;;;;;;5014888;28;20248;-74
2023/08/12 10:43:59;;;;;;;5.50;4.22;;;26.60;99.90;;;;;;5011829;28;20212;-72
2023/08/12 10:46:33;;;;;;;5.72;4.45;;;26.70;99.90;;;;;;5007926;28;20652;-73
2023/08/12 10:49:07;;;;;;;4.90;4.40;;;26.80;99.90;;;;;;5012796;28;20261;-73
2023/08/12 10:51:52;;;;;;;6.15;4.80;;;26.80;99.90;;;;;;5010305;28;20564;-73
2023/08/12 10:54:22;;;;;;;5.50;4.57;;;27.00;99.90;;;;;;5008989;28;20209;-73
2023/08/12 10:57:03;;;;;;;6.50;4.30;;;26.80;99.90;;;;;;5006970;28;20845;-73
2023/08/12 10:59:48;;;;;;;6.10;4.93;;;26.80;99.90;;;;;;5005146;28;20228;-72
2023/08/12 11:02:32;;;;;;;7.95;5.45;;;26.80;99.90;;;;;;5005179;28;20220;-72
2023/08/12 11:05:07;;;;;;;5.80;5.15;;;27.00;99.90;;;;;;5008608;28;20334;-77
2023/08/12 11:07:49;;;;;;;5.25;4.72;;;26.90;99.90;;;;;;5002582;28;20250;-73
2023/08/12 11:10:25;;;;;;;6.18;5.05;;;26.80;99.90;;;;;;5005572;28;20192;-73
2023/08/12 11:12:56;;;;;;;5.40;4.72;;;26.80;99.90;;;;;;5002276;28;20243;-75
2023/08/12 11:15:37;;;;;;;6.93;4.78;;;26.90;99.90;;;;;;5004342;28;20232;-71
2023/08/12 11:18:08;;;;;;;4.88;4.38;;;27.00;99.90;;;;;;5007774;28;20213;-75
2023/08/12 11:20:34;;;;;;;7.78;4.55;;;26.90;99.90;;;;;;5012941;28;20244;-72
2023/08/12 11:23:00;;;;;;;6.15;4.70;;;27.10;99.90;;;;;;5012772;28;20209;-73
2023/08/12 11:25:29;;;;;;;4.78;4.28;;;27.20;99.90;;;;;;5012355;28;20172;-72
2023/08/12 11:27:54;;;;;;;4.88;4.43;;;27.10;99.90;;;;;;5011608;28;20168;-75
2023/08/12 11:30:22;;;;;;;7.43;4.93;;;27.00;99.90;;;;;;5010896;28;20216;-73
2023/08/12 11:32:50;;;;;;;5.00;4.15;;;27.00;99.90;;;;;;5008726;28;20722;-73
2023/08/12 11:35:17;;;;;;;4.95;4.43;;;27.10;99.90;;;;;;5008106;28;20691;-74
2023/08/12 11:37:45;;;;;;;4.30;3.85;;;27.10;99.90;;;;;;5005195;28;20558;-73
2023/08/12 11:40:14;;;;;;;4.28;3.88;;;26.90;99.90;;;;;;5007066;28;20672;-72
2023/08/12 11:42:41;;;;;;;5.45;4.30;;;26.90;99.90;;;;;;5007327;28;20206;-72
2023/08/12 11:45:08;;;;;;;6.50;4.38;;;26.70;99.90;;;;;;5006496;28;20209;-73
2023/08/12 11:47:35;;;;;;;4.80;4.30;;;26.50;99.90;;;;;;5003124;28;20206;-72
2023/08/12 11:50:11;;;;;;;5.88;4.25;;;26.50;99.90;;;;;;5004973;28;20212;-75
2023/08/12 11:52:38;;;;;;;5.93;4.50;;;26.40;99.90;;;;;;5000868;28;20280;-75
2023/08/12 11:55:05;;;;;;;5.28;4.30;;;26.40;99.90;;;;;;5007242;28;20208;-73
2023/08/12 11:57:34;;;;;;;5.45;4.10;;;26.30;99.90;;;;;;5014359;28;20215;-75
2023/08/12 12:00:13;;;;;;;6.38;4.45;;;26.40;99.90;;;;;;5010513;28;20212;-75
2023/08/12 12:02:46;;;;;;;5.70;4.13;;;26.50;99.90;;;;;;5006288;28;20212;-73
2023/08/12 12:05:13;;;;;;;6.22;3.88;;;26.60;99.90;;;;;;5011222;28;20211;-73
2023/08/12 12:07:39;;;;;;;5.00;4.25;;;26.70;99.90;;;;;;5006867;28;20179;-75
2023/08/12 12:10:05;;;;;;;5.45;4.18;;;26.60;99.90;;;;;;5008997;28;20537;-75
2023/08/12 12:12:35;;;;;;;5.25;4.13;;;26.70;99.90;;;;;;5005471;28;20227;-75
2023/08/12 12:15:00;;;;;;;5.00;4.47;;;26.50;99.90;;;;;;5005367;28;20296;-73
2023/08/12 12:17:26;;;;;;;4.93;4.43;;;26.60;99.90;;;;;;5006157;28;20300;-76
2023/08/12 12:19:59;;;;;;;4.82;4.43;;;26.40;99.90;;;;;;5005162;28;20228;-73
2023/08/12 12:22:35;;;;;;;6.15;5.55;;;26.50;99.90;;;;;;5003572;28;20236;-73
2023/08/12 12:25:09;;;;;;;5.03;4.60;;;26.40;99.90;;;;;;5004241;28;20208;-73
2023/08/12 12:27:39;;;;;;;6.68;4.15;;;26.30;99.90;;;;;;5001123;28;20228;-73
2023/08/12 12:30:11;;;;;;;5.20;4.38;;;26.30;99.90;;;;;;5003639;28;20205;-74
2023/08/12 12:32:37;;;;;;;8.00;6.00;;;26.10;99.90;;;;;;5003602;28;20679;-73
2023/08/12 12:35:03;;;;;;;5.60;4.55;;;25.90;99.90;;;;;;5001431;28;20288;-73
2023/08/12 12:37:30;;;;;;;4.97;4.10;;;25.70;99.90;;;;;;5008895;28;20176;-73
2023/08/12 12:39:55;;;;;;;6.40;4.80;;;25.40;99.90;;;;;;5009707;28;20254;-73
2023/08/12 12:42:21;;;;;;;7.30;4.50;;;25.30;99.90;;;;;;5008849;28;20221;-74
2023/08/12 12:44:46;;;;;;;7.00;5.82;;;25.60;99.90;;;;;;5006172;28;20206;-75
2023/08/12 12:47:12;;;;;;;8.20;4.18;;;26.00;99.90;;;;;;5009263;28;20217;-74